createdAt,value
2018-05-08T00:00:17.188Z,67.40
2018-05-08T00:02:48.425Z,67.40
2018-05-08T00:05:19.608Z,67.60
2018-05-08T00:07:51.560Z,68.60
2018-05-08T00:10:22.776Z,67.80
2018-05-08T00:12:54.010Z,68.00
2018-05-08T00:15:25.434Z,68.00
2018-05-08T00:17:56.705Z,68.00
2018-05-08T00:20:27.920Z,68.10
2018-05-08T00:22:59.165Z,68.30
2018-05-08T00:25:30.379Z,68.70
2018-05-08T00:28:02.286Z,68.80
2018-05-08T00:30:33.498Z,68.80
2018-05-08T00:33:05.786Z,68.80
2018-05-08T00:35:37.055Z,68.70
2018-05-08T00:38:08.578Z,68.60
2018-05-08T00:40:39.759Z,68.60
2018-05-08T00:43:11.164Z,69.10
2018-05-08T00:45:42.353Z,69.00
2018-05-08T00:48:13.570Z,69.20
2018-05-08T00:50:44.738Z,69.40
2018-05-08T00:53:15.960Z,69.10
2018-05-08T00:55:47.162Z,69.00
2018-05-08T00:58:19.194Z,69.30
2018-05-08T01:00:50.391Z,69.30
2018-05-08T01:03:21.589Z,69.30
2018-05-08T01:05:52.840Z,69.50
2018-05-08T01:08:24.086Z,69.50
2018-05-08T01:10:55.314Z,69.70
2018-05-08T01:13:26.525Z,69.80
2018-05-08T01:15:57.686Z,69.90
2018-05-08T01:18:28.926Z,69.90
2018-05-08T01:21:00.273Z,70.10
2018-05-08T01:23:31.459Z,70.10
2018-05-08T01:26:02.611Z,70.50
2018-05-08T01:28:34.563Z,70.60
2018-05-08T01:31:05.727Z,70.50
2018-05-08T01:33:36.979Z,70.80
2018-05-08T01:36:08.162Z,70.50
2018-05-08T01:38:39.781Z,70.90
2018-05-08T01:41:10.962Z,71.20
2018-05-08T01:43:42.154Z,71.00
2018-05-08T01:46:14.082Z,71.10
2018-05-08T01:48:45.261Z,71.10
2018-05-08T01:51:16.493Z,71.30
2018-05-08T01:53:48.420Z,71.40
2018-05-08T01:56:19.664Z,71.30
2018-05-08T01:58:51.089Z,71.40
2018-05-08T02:01:22.304Z,71.10
2018-05-08T02:03:53.491Z,71.20
2018-05-08T02:06:24.706Z,71.40
2018-05-08T02:08:56.149Z,71.00
2018-05-08T02:11:27.360Z,70.80
2018-05-08T02:13:59.283Z,70.50
2018-05-08T02:16:30.521Z,70.40
2018-05-08T02:19:01.777Z,70.20
2018-05-08T02:21:33.094Z,70.10
2018-05-08T02:24:04.291Z,70.00
2018-05-08T02:26:36.291Z,70.00
2018-05-08T02:29:07.458Z,70.00
2018-05-08T02:31:38.889Z,69.70
2018-05-08T02:34:10.054Z,69.60
2018-05-08T02:36:41.346Z,69.60
2018-05-08T02:41:45.575Z,69.80
2018-05-08T02:44:17.514Z,70.50
2018-05-08T02:46:48.735Z,70.40
2018-05-08T02:49:19.961Z,70.40
2018-05-08T02:51:51.710Z,70.60
2018-05-08T02:54:22.865Z,70.50
2018-05-08T02:56:54.078Z,70.70
2018-05-08T02:59:26.036Z,70.60
2018-05-08T03:01:57.976Z,70.60
2018-05-08T03:04:29.901Z,71.10
2018-05-08T03:07:01.533Z,70.90
2018-05-08T03:09:32.707Z,70.30
2018-05-08T03:12:03.937Z,70.30
2018-05-08T03:14:35.105Z,70.50
2018-05-08T03:17:06.338Z,70.00
2018-05-08T03:19:37.544Z,70.50
2018-05-08T03:22:08.849Z,70.60
2018-05-08T03:24:41.525Z,70.60
2018-05-08T03:27:12.824Z,70.60
2018-05-08T03:29:44.026Z,71.00
2018-05-08T03:32:15.953Z,70.90
2018-05-08T03:34:47.141Z,70.90
2018-05-08T03:37:19.138Z,71.20
2018-05-08T03:39:50.382Z,71.00
2018-05-08T03:42:21.597Z,71.10
2018-05-08T03:44:52.859Z,70.70
2018-05-08T03:47:24.061Z,71.00
2018-05-08T03:49:56.010Z,70.60
2018-05-08T03:52:27.197Z,70.60
2018-05-08T03:54:58.368Z,70.50
2018-05-08T03:57:29.653Z,70.40
2018-05-08T04:00:00.833Z,70.50
2018-05-08T04:02:44.394Z,70.50
2018-05-08T04:05:28.165Z,70.50
2018-05-08T04:08:12.757Z,70.00
2018-05-08T04:10:43.942Z,70.10
2018-05-08T04:13:16.749Z,69.80
2018-05-08T04:15:47.930Z,69.70
2018-05-08T04:18:19.129Z,70.00
2018-05-08T04:20:51.161Z,70.10
2018-05-08T04:23:22.349Z,69.80
2018-05-08T04:25:53.557Z,70.10
2018-05-08T04:28:24.741Z,70.00
2018-05-08T04:30:56.712Z,69.80
2018-05-08T04:33:27.885Z,69.80
2018-05-08T04:35:59.139Z,69.60
2018-05-08T04:38:30.333Z,69.60
2018-05-08T04:41:02.367Z,69.20
2018-05-08T04:43:34.733Z,68.00
2018-05-08T04:46:05.890Z,68.70
2018-05-08T04:48:37.133Z,68.60
2018-05-08T04:51:08.333Z,68.60
2018-05-08T04:53:39.778Z,68.50
2018-05-08T04:56:11.007Z,68.50
2018-05-08T04:58:42.233Z,68.60
2018-05-08T05:01:14.271Z,68.50
2018-05-08T05:03:45.496Z,68.40
2018-05-08T05:06:17.134Z,68.40
2018-05-08T05:08:48.332Z,68.10
2018-05-08T05:11:20.295Z,67.70
2018-05-08T05:13:51.515Z,67.70
2018-05-08T05:16:22.741Z,67.60
2018-05-08T05:18:54.032Z,67.60
2018-05-08T05:21:25.325Z,67.40
2018-05-08T05:23:56.525Z,67.50
2018-05-08T05:26:28.465Z,67.00
2018-05-08T05:29:00.103Z,67.00
2018-05-08T05:31:31.356Z,66.20
2018-05-08T05:34:02.590Z,66.40
2018-05-08T05:36:33.749Z,65.80
2018-05-08T05:39:05.019Z,65.90
2018-05-08T05:41:37.058Z,65.50
2018-05-08T05:44:08.303Z,65.50
2018-05-08T05:46:39.530Z,65.10
2018-05-08T05:49:10.735Z,65.20
2018-05-08T05:51:41.952Z,64.80
2018-05-08T05:54:13.913Z,64.40
2018-05-08T05:56:46.131Z,64.20
2018-05-08T05:59:17.319Z,64.20
2018-05-08T06:01:48.621Z,64.20
2018-05-08T06:04:19.837Z,64.20
2018-05-08T06:06:51.034Z,64.00
2018-05-08T06:09:22.217Z,64.20
2018-05-08T06:11:54.307Z,63.60
2018-05-08T06:14:25.552Z,63.60
2018-05-08T06:16:56.812Z,63.30
2018-05-08T06:19:28.103Z,62.80
2018-05-08T06:21:59.368Z,62.60
2018-05-08T06:24:30.592Z,62.70
2018-05-08T06:27:02.540Z,62.40
2018-05-08T06:29:34.480Z,61.80
2018-05-08T06:32:05.672Z,61.80
2018-05-08T06:34:36.870Z,61.60
2018-05-08T06:37:08.059Z,61.30
2018-05-08T06:39:39.234Z,61.10
2018-05-08T06:42:10.786Z,60.90
2018-05-08T06:44:41.956Z,61.50
2018-05-08T06:47:13.190Z,61.00
2018-05-08T06:49:44.381Z,60.80
2018-05-08T06:52:16.660Z,59.70
2018-05-08T06:54:47.968Z,59.90
2018-05-08T06:57:19.250Z,60.30
2018-05-08T06:59:50.505Z,60.30
2018-05-08T07:02:22.378Z,60.00
2018-05-08T07:04:53.610Z,60.10
2018-05-08T07:07:26.087Z,74.40
2018-05-08T07:09:57.304Z,73.20
2018-05-08T07:12:28.612Z,60.00
2018-05-08T07:14:59.835Z,91.40
2018-05-08T07:17:31.108Z,59.80
2018-05-08T07:20:02.338Z,59.60
2018-05-08T07:22:33.946Z,59.40
2018-05-08T07:25:05.109Z,59.40
2018-05-08T07:27:36.442Z,58.70
2018-05-08T07:30:07.713Z,58.30
2018-05-08T07:32:39.976Z,57.70
2018-05-08T07:35:11.175Z,57.60
2018-05-08T07:37:43.178Z,58.00
2018-05-08T07:40:14.459Z,58.00
2018-05-08T07:42:45.757Z,57.80
2018-05-08T07:45:16.937Z,58.00
2018-05-08T07:47:51.128Z,58.20
2018-05-08T07:50:24.487Z,58.50
2018-05-08T07:52:56.559Z,57.80
2018-05-08T07:55:27.782Z,58.10
2018-05-08T07:57:59.717Z,58.80
2018-05-08T08:00:30.898Z,58.70
2018-05-08T08:03:02.918Z,57.00
2018-05-08T08:05:35.969Z,57.00
2018-05-08T08:08:07.453Z,57.00
2018-05-08T08:10:39.440Z,57.20
2018-05-08T08:13:11.394Z,56.70
2018-05-08T08:15:43.444Z,57.10
2018-05-08T08:18:14.726Z,57.10
2018-05-08T08:20:46.894Z,56.50
2018-05-08T08:23:19.077Z,56.80
2018-05-08T08:25:50.318Z,55.70
2018-05-08T08:28:21.566Z,55.80
2018-05-08T08:30:52.759Z,55.70
2018-05-08T08:33:24.019Z,55.40
2018-05-08T08:35:55.241Z,54.70
2018-05-08T08:38:26.519Z,54.80
2018-05-08T08:40:58.547Z,54.40
2018-05-08T08:43:29.887Z,54.40
2018-05-08T08:46:01.136Z,54.90
2018-05-08T08:48:32.483Z,52.60
2018-05-08T08:51:04.484Z,51.10
2018-05-08T08:53:36.439Z,49.40
2018-05-08T08:56:07.731Z,49.30
2018-05-08T08:58:38.889Z,49.20
2018-05-08T09:01:10.131Z,49.10
2018-05-08T09:03:41.338Z,48.40
2018-05-08T09:06:13.772Z,48.80
2018-05-08T09:08:45.753Z,45.70
2018-05-08T09:11:17.220Z,45.70
2018-05-08T09:13:48.393Z,45.30
2018-05-08T09:16:19.583Z,44.80
2018-05-08T09:18:51.636Z,44.70
2018-05-08T09:21:22.881Z,44.60
2018-05-08T09:23:54.258Z,45.50
2018-05-08T09:26:25.438Z,44.40
2018-05-08T09:28:56.691Z,43.00
2018-05-08T09:31:27.892Z,42.50
2018-05-08T09:33:59.147Z,42.90
2018-05-08T09:36:30.395Z,43.00
2018-05-08T09:39:02.496Z,43.20
2018-05-08T09:41:33.717Z,43.20
2018-05-08T09:44:05.002Z,43.20
2018-05-08T09:46:36.171Z,43.20
2018-05-08T09:49:08.342Z,42.50
2018-05-08T09:51:40.309Z,42.20
2018-05-08T09:54:11.574Z,42.70
2018-05-08T09:56:43.507Z,40.20
2018-05-08T09:59:14.792Z,40.30
2018-05-08T10:01:45.994Z,40.10
2018-05-08T10:04:18.005Z,39.20
2018-05-08T10:06:49.303Z,39.20
2018-05-08T10:09:20.571Z,39.40
2018-05-08T10:11:51.860Z,39.10
2018-05-08T10:14:23.055Z,38.10
2018-05-08T10:16:54.273Z,37.30
2018-05-08T10:19:25.526Z,36.90
2018-05-08T10:21:56.759Z,37.70
2018-05-08T10:24:28.710Z,36.10
2018-05-08T10:27:00.291Z,36.00
2018-05-08T10:29:31.462Z,37.40
2018-05-08T10:32:02.897Z,37.60
2018-05-08T10:34:34.075Z,37.90
2018-05-08T10:37:05.310Z,38.20
2018-05-08T10:39:36.541Z,37.10
2018-05-08T10:42:07.814Z,37.60
2018-05-08T10:44:39.125Z,37.60
2018-05-08T10:47:10.350Z,37.80
2018-05-08T10:49:41.493Z,37.70
2018-05-08T10:52:12.771Z,37.80
2018-05-08T10:54:43.955Z,37.50
2018-05-08T10:57:15.930Z,36.70
2018-05-08T10:59:47.880Z,37.10
2018-05-08T11:02:19.843Z,36.70
2018-05-08T11:04:51.843Z,36.60
2018-05-08T11:07:23.053Z,36.60
2018-05-08T11:09:55.011Z,37.30
2018-05-08T11:12:26.956Z,37.50
2018-05-08T11:14:58.168Z,37.50
2018-05-08T11:17:29.399Z,37.80
2018-05-08T11:20:00.830Z,37.80
2018-05-08T11:22:31.969Z,36.90
2018-05-08T11:25:03.239Z,36.40
2018-05-08T11:27:34.494Z,36.90
2018-05-08T11:30:05.694Z,36.70
2018-05-08T11:32:37.689Z,36.10
2018-05-08T11:35:08.941Z,36.00
2018-05-08T11:37:40.231Z,35.80
2018-05-08T11:40:11.538Z,35.80
2018-05-08T11:42:42.705Z,34.60
2018-05-08T11:45:14.048Z,34.60
2018-05-08T11:47:45.309Z,34.90
2018-05-08T11:50:17.298Z,34.80
2018-05-08T11:52:48.517Z,34.70
2018-05-08T11:55:19.793Z,35.10
2018-05-08T11:57:51.226Z,35.40
2018-05-08T12:00:23.314Z,34.70
2018-05-08T12:02:54.535Z,34.60
2018-05-08T12:05:25.940Z,35.10
2018-05-08T12:07:57.114Z,35.70
2018-05-08T12:10:29.069Z,35.40
2018-05-08T12:13:01.072Z,35.70
2018-05-08T12:15:32.317Z,35.60
2018-05-08T12:18:03.505Z,35.70
2018-05-08T12:20:34.743Z,35.80
2018-05-08T12:23:05.944Z,36.10
2018-05-08T12:25:37.698Z,35.80
2018-05-08T12:28:09.584Z,36.10
2018-05-08T12:30:40.869Z,36.00
2018-05-08T12:33:12.950Z,36.20
2018-05-08T12:35:45.145Z,35.80
2018-05-08T12:38:16.575Z,36.10
2018-05-08T12:40:47.775Z,36.40
2018-05-08T12:43:19.063Z,36.20
2018-05-08T12:45:50.346Z,37.00
2018-05-08T12:48:21.636Z,37.60
2018-05-08T12:50:52.923Z,37.40
2018-05-08T12:53:24.344Z,37.40
2018-05-08T12:55:55.606Z,36.90
2018-05-08T12:58:26.877Z,36.80
2018-05-08T13:00:58.128Z,36.80
2018-05-08T13:03:30.102Z,37.30
2018-05-08T13:06:01.388Z,37.30
2018-05-08T13:08:32.694Z,37.20
2018-05-08T13:11:04.203Z,36.60
2018-05-08T13:13:36.248Z,35.40
2018-05-08T13:16:07.573Z,35.30
2018-05-08T13:18:39.586Z,35.30
2018-05-08T13:21:10.967Z,35.20
2018-05-08T13:23:43.035Z,34.30
2018-05-08T13:26:17.776Z,34.30
2018-05-08T13:28:49.031Z,34.60
2018-05-08T13:31:20.268Z,36.30
2018-05-08T13:33:52.280Z,36.70
2018-05-08T13:36:23.486Z,36.60
2018-05-08T13:38:54.951Z,36.70
2018-05-08T13:41:26.286Z,36.70
2018-05-08T13:43:57.530Z,36.40
2018-05-08T13:46:28.844Z,36.00
2018-05-08T13:49:00.020Z,34.90
2018-05-08T13:51:31.615Z,34.20
2018-05-08T13:54:02.897Z,34.70
2018-05-08T13:56:34.929Z,34.60
2018-05-08T13:59:06.169Z,34.60
2018-05-08T14:01:37.377Z,35.20
2018-05-08T14:04:08.623Z,35.00
2018-05-08T14:06:39.961Z,35.00
2018-05-08T14:09:11.102Z,34.60
2018-05-08T14:11:42.349Z,33.60
2018-05-08T14:14:14.681Z,33.50
2018-05-08T14:16:45.869Z,33.50
2018-05-08T14:19:17.348Z,33.70
2018-05-08T14:21:48.686Z,33.70
2018-05-08T14:24:20.544Z,33.50
2018-05-08T14:26:51.916Z,33.40
2018-05-08T14:29:23.224Z,33.80
2018-05-08T14:31:54.546Z,34.20
2018-05-08T14:34:25.771Z,34.30
2018-05-08T14:36:57.314Z,34.60
2018-05-08T14:39:28.547Z,34.20
2018-05-08T14:42:00.645Z,35.40
2018-05-08T14:44:32.571Z,36.00
2018-05-08T14:47:03.822Z,35.90
2018-05-08T14:49:35.128Z,35.70
2018-05-08T14:52:07.180Z,35.70
2018-05-08T14:54:38.406Z,35.60
2018-05-08T14:57:09.653Z,35.70
2018-05-08T14:59:41.630Z,35.30
2018-05-08T15:02:13.813Z,35.50
2018-05-08T15:04:44.886Z,35.40
2018-05-08T15:07:16.191Z,34.80
2018-05-08T15:09:47.392Z,34.40
2018-05-08T15:12:18.602Z,34.70
2018-05-08T15:14:49.876Z,34.20
2018-05-08T15:17:21.828Z,33.70
2018-05-08T15:19:53.421Z,33.60
2018-05-08T15:22:25.449Z,33.80
2018-05-08T15:24:57.546Z,33.80
2018-05-08T15:27:28.847Z,33.80
2018-05-08T15:30:00.098Z,34.10
2018-05-08T15:32:31.373Z,33.00
2018-05-08T15:35:02.604Z,33.80
2018-05-08T15:37:33.883Z,34.30
2018-05-08T15:40:05.147Z,34.20
2018-05-08T15:42:36.400Z,34.00
2018-05-08T15:45:07.581Z,33.70
2018-05-08T15:47:39.637Z,34.10
2018-05-08T15:50:11.583Z,33.70
2018-05-08T15:52:42.792Z,33.70
2018-05-08T15:55:14.150Z,33.80
2018-05-08T15:57:45.367Z,34.00
2018-05-08T16:00:16.609Z,33.70
2018-05-08T16:02:47.804Z,34.00
2018-05-08T16:05:19.051Z,34.00
2018-05-08T16:07:50.381Z,34.20
2018-05-08T16:10:21.565Z,34.20
2018-05-08T16:12:53.523Z,33.90
2018-05-08T16:15:25.513Z,34.10
2018-05-08T16:17:56.766Z,34.10
2018-05-08T16:20:28.316Z,33.80
2018-05-08T16:22:59.504Z,34.20
2018-05-08T16:25:30.808Z,35.00
2018-05-08T16:28:02.970Z,35.10
2018-05-08T16:30:34.148Z,35.10
2018-05-08T16:33:05.446Z,34.80
2018-05-08T16:35:37.359Z,34.20
2018-05-08T16:38:08.611Z,33.40
2018-05-08T16:40:39.772Z,34.10
2018-05-08T16:43:11.756Z,34.80
2018-05-08T16:45:42.938Z,34.70
2018-05-08T16:48:14.454Z,34.80
2018-05-08T16:50:45.808Z,34.90
2018-05-08T16:53:17.099Z,35.40
2018-05-08T16:55:48.291Z,35.30
2018-05-08T16:58:19.544Z,34.90
2018-05-08T17:00:50.782Z,34.60
2018-05-08T17:03:21.999Z,35.00
2018-05-08T17:05:54.255Z,35.60
2018-05-08T17:08:25.520Z,35.60
2018-05-08T17:10:56.742Z,36.70
2018-05-08T17:13:28.707Z,35.80
2018-05-08T17:15:59.959Z,35.50
2018-05-08T17:18:31.919Z,36.30
2018-05-08T17:21:03.844Z,35.50
2018-05-08T17:23:35.133Z,35.40
2018-05-08T17:26:07.100Z,35.90
2018-05-08T17:28:39.143Z,35.80
2018-05-08T17:31:10.443Z,35.70
2018-05-08T17:33:41.786Z,35.60
2018-05-08T17:36:12.967Z,35.90
2018-05-08T17:38:44.984Z,36.20
2018-05-08T17:41:16.256Z,36.20
2018-05-08T17:43:47.858Z,36.40
2018-05-08T17:46:19.529Z,36.30
2018-05-08T17:48:50.799Z,36.60
2018-05-08T17:51:22.084Z,36.60
2018-05-08T17:53:53.352Z,36.70
2018-05-08T17:56:24.538Z,37.20
2018-05-08T17:58:55.797Z,37.80
2018-05-08T18:01:27.023Z,37.40
2018-05-08T18:03:58.264Z,37.50
2018-05-08T18:06:30.548Z,38.10
2018-05-08T18:09:01.705Z,38.10
2018-05-08T18:11:32.924Z,38.80
2018-05-08T18:14:04.166Z,39.00
2018-05-08T18:16:35.391Z,39.50
2018-05-08T18:19:06.613Z,39.80
2018-05-08T18:21:38.526Z,40.50
2018-05-08T18:24:09.775Z,40.50
2018-05-08T18:26:40.985Z,40.80
2018-05-08T18:29:12.255Z,41.10
2018-05-08T18:31:43.596Z,41.50
2018-05-08T18:34:14.888Z,41.80
2018-05-08T18:36:46.171Z,42.10
2018-05-08T18:39:17.341Z,42.30
2018-05-08T18:41:48.574Z,42.60
2018-05-08T18:44:19.807Z,42.90
2018-05-08T18:46:51.345Z,42.90
2018-05-08T18:49:22.689Z,43.00
2018-05-08T18:51:53.873Z,43.20
2018-05-08T18:54:25.073Z,43.40
2018-05-08T18:56:56.343Z,43.60
2018-05-08T18:59:27.551Z,43.80
2018-05-08T19:01:59.531Z,43.90
2018-05-08T19:04:30.744Z,43.90
2018-05-08T19:07:02.784Z,44.20
2018-05-08T19:09:34.038Z,44.20
2018-05-08T19:12:06.251Z,44.40
2018-05-08T19:14:37.460Z,44.40
2018-05-08T19:17:09.451Z,44.30
2018-05-08T19:19:46.821Z,44.30
2018-05-08T19:22:18.026Z,44.40
2018-05-08T19:24:49.298Z,44.40
2018-05-08T19:27:21.510Z,44.70
2018-05-08T19:29:58.899Z,44.70
2018-05-08T19:32:30.205Z,44.80
2018-05-08T19:35:08.754Z,45.20
2018-05-08T19:37:46.042Z,45.10
2018-05-08T19:40:17.276Z,45.30
2018-05-08T19:42:48.527Z,45.40
2018-05-08T19:45:19.875Z,45.40
2018-05-08T19:47:51.041Z,45.70
2018-05-08T19:50:22.433Z,45.80
2018-05-08T19:52:53.640Z,45.80
2018-05-08T19:55:24.903Z,46.00
2018-05-08T19:57:56.283Z,45.80
2018-05-08T20:00:27.671Z,45.90
2018-05-08T20:02:58.874Z,45.90
2018-05-08T20:05:30.105Z,46.00
2018-05-08T20:08:01.342Z,46.00
2018-05-08T20:10:32.689Z,45.90
2018-05-08T20:13:04.676Z,46.40
2018-05-08T20:15:35.904Z,46.40
2018-05-08T20:18:13.358Z,46.50
2018-05-08T20:20:44.619Z,46.90
2018-05-08T20:23:15.853Z,47.20
2018-05-08T20:25:47.053Z,47.20
2018-05-08T20:28:18.241Z,47.30
2018-05-08T20:30:49.571Z,47.50
2018-05-08T20:33:20.822Z,47.60
2018-05-08T20:35:52.104Z,47.60
2018-05-08T20:38:24.078Z,47.80
2018-05-08T20:40:56.020Z,47.70
2018-05-08T20:43:27.997Z,48.70
2018-05-08T20:45:59.936Z,48.30
2018-05-08T20:48:31.165Z,48.20
2018-05-08T20:51:02.462Z,48.20
2018-05-08T20:53:33.696Z,48.20
2018-05-08T20:56:05.599Z,47.80
2018-05-08T20:58:36.834Z,48.30
2018-05-08T21:01:08.076Z,48.40
2018-05-08T21:03:40.013Z,48.50
2018-05-08T21:06:13.104Z,47.80
2018-05-08T21:08:44.271Z,48.90
2018-05-08T21:11:15.647Z,48.50
2018-05-08T21:13:47.662Z,48.80
2018-05-08T21:16:18.906Z,48.80
2018-05-08T21:18:50.105Z,48.70
2018-05-08T21:21:21.354Z,48.90
2018-05-08T21:23:53.464Z,50.10
2018-05-08T21:26:24.695Z,49.40
2018-05-08T21:28:58.937Z,49.40
2018-05-08T21:31:30.200Z,49.40
2018-05-08T21:34:01.421Z,49.40
2018-05-08T21:36:32.590Z,49.40
2018-05-08T21:39:04.831Z,49.40
2018-05-08T21:41:36.083Z,49.30
2018-05-08T21:44:07.363Z,49.30
2018-05-08T21:46:40.402Z,49.40
2018-05-08T21:49:11.603Z,49.40
2018-05-08T21:51:43.632Z,49.40
2018-05-08T21:54:14.904Z,49.40
2018-05-08T21:56:46.900Z,49.60
2018-05-08T21:59:18.089Z,49.60
2018-05-08T22:01:49.344Z,49.40
2018-05-08T22:04:21.355Z,49.80
2018-05-08T22:06:52.898Z,49.80
2018-05-08T22:09:24.143Z,49.90
2018-05-08T22:11:55.444Z,49.80
2018-05-08T22:14:26.686Z,49.80
2018-05-08T22:16:58.683Z,50.00
2018-05-08T22:19:29.866Z,50.00
2018-05-08T22:22:01.393Z,50.30
2018-05-08T22:24:32.609Z,50.40
2018-05-08T22:27:04.678Z,50.70
2018-05-08T22:29:35.902Z,50.70
2018-05-08T22:32:07.274Z,50.50
2018-05-08T22:34:39.180Z,51.00
2018-05-08T22:37:10.429Z,50.90
2018-05-08T22:39:41.712Z,51.00
2018-05-08T22:42:12.939Z,51.00
2018-05-08T22:44:44.314Z,51.00
2018-05-08T22:47:15.504Z,51.20
2018-05-08T22:49:46.735Z,51.30
2018-05-08T22:52:18.158Z,51.30
2018-05-08T22:54:49.338Z,51.30
2018-05-08T22:57:20.683Z,51.30
2018-05-08T22:59:51.960Z,51.30
2018-05-08T23:02:24.413Z,51.30
2018-05-08T23:04:55.698Z,51.60
2018-05-08T23:07:27.714Z,51.50
2018-05-08T23:09:59.018Z,51.50
2018-05-08T23:12:30.717Z,51.60
2018-05-08T23:15:01.955Z,51.50
2018-05-08T23:17:33.276Z,51.80
2018-05-08T23:20:04.831Z,52.00
2018-05-08T23:22:36.078Z,52.10
2018-05-08T23:25:07.323Z,52.10
2018-05-08T23:27:38.559Z,52.10
2018-05-08T23:30:09.799Z,52.20
2018-05-08T23:32:41.170Z,52.20
2018-05-08T23:35:12.494Z,52.50
2018-05-08T23:37:43.703Z,52.60
2018-05-08T23:40:14.964Z,52.70
2018-05-08T23:42:46.309Z,52.80
2018-05-08T23:45:18.310Z,52.60
2018-05-08T23:47:49.514Z,53.10
2018-05-08T23:50:21.506Z,53.30
2018-05-08T23:52:52.895Z,53.30
2018-05-08T23:55:24.189Z,53.30
2018-05-08T23:57:55.487Z,53.40
